Airfield :
LOGIN :

Register | Disclaimer

   EN    FR    IT 

 










Legend :    VFR   Marginal VFR   IFR   Intensive IFR   Very Intensive IFR
Visi :
Ceiling :
>= 8 km
>= 3000ft
5 to 8 km
1000 to 3000 ft
1500m to 5 km
500 to 1000 ft
800 to 1500m
200 to 500 ft
< 800m
< 200 ft
Symbols :   Thunderstorms  Fog  Heavy snow  Heavy precipitations  Wind > 20 kt
SIGMETs :     Misc.  Thunderstorms  Icing  Turbulence  Mountain Waves  Volcanic Ashes







- Airport Elevation : 580 ft
- Download approach charts


LFOA - Avord

CURRENT METAR :
  • 252130Z AUTO 03004KT CAVOK 11/06 Q1016

EXPIRED METARs :
  • 252100Z AUTO 09004KT CAVOK 11/06 Q1016
  • 252030Z AUTO 09004KT CAVOK 11/05 Q1016
  • 252000Z AUTO 14003KT CAVOK 12/05 Q1016
  • 251930Z AUTO 13006KT CAVOK 13/05 Q1016 TEMPO 4000 SHRA BKN020 BKN040CB
  • 251900Z AUTO 15006KT CAVOK 13/05 Q1016 TEMPO 4000 SHRA BKN020 BKN040CB

TAF TAF LFOA
Valid from the 25 at 15:00 until the 26 at 15:00 UTC


251400Z 2515/2615 05010KT 9999 BKN040
TEMPO 2517/2602 16010KT 4000 SHRA BKN020 BKN040CB
No reported NOTAMs for that airfield.



MET'MAP, your aeronautical weather chart ! - Copyright ORBIFLY December 2007 - Disclaimer

ORBIFLY MET'MAP TEAM :

Programming & Development : Alexandra Zaïnal
Concept & Development : Baudouin d'Aumeries
Co-Development & Prog : Marc-Olivier Méhu
Technical & hardware support : Manuel Goepfert

Contact : metmap@orbifly.com




SOURCES & CREDITS :

   NOAA